Gilmour, Canada
Current Conditions -  °F | °C
As of 11:00 PM on Thursday 18 Dec 2014 (Local Time) from CYTR Reporting Station
Overcast Overcast  
Wind Chill: 18°   Ceiling: 2100
Heat Index: 27°   Visibility: 15mi
Dew Point: 19°   Wind: 8mph
Humidity: 74%   Direction: 340°NNW
Pressure: 30.06"   Gusts: NA
Location:  44.82°N, 77.62°W
Report Text: CYTR 190400Z 34007KT 15SM OVC021 M03/M07 A3006 RMK SC8 SLP185
Loading
Personal Weather Stations






























Interactive Weather Map New forecast layout! Learn more

10-Day Weather Forecast

Advertisements
Track Severe Weather on mobile